createdAt,value
2022-10-31T00:01:38.712Z,33.50
2022-10-31T00:04:06.814Z,34.13
2022-10-31T00:06:33.886Z,33.67
2022-10-31T00:09:04.216Z,25.00
2022-10-31T00:11:32.045Z,29.53
2022-10-31T00:14:00.208Z,26.57
2022-10-31T00:16:28.835Z,22.83
2022-10-31T00:19:00.659Z,23.67
2022-10-31T00:21:29.117Z,25.47
2022-10-31T00:23:56.182Z,76.13
2022-10-31T00:26:23.238Z,43.77
2022-10-31T00:28:50.276Z,91.80
2022-10-31T00:31:17.252Z,41.80
2022-10-31T00:33:44.448Z,41.73
2022-10-31T00:36:18.965Z,35.20
2022-10-31T00:38:50.363Z,42.80
2022-10-31T00:41:19.142Z,42.87
2022-10-31T00:43:46.473Z,33.40
2022-10-31T00:46:14.731Z,29.70
2022-10-31T00:48:42.379Z,30.30
2022-10-31T00:51:09.922Z,34.53
2022-10-31T00:53:36.912Z,19.10
2022-10-31T00:56:07.482Z,22.47
2022-10-31T00:58:34.564Z,26.13
2022-10-31T01:01:01.719Z,29.47
2022-10-31T01:03:33.417Z,31.97
2022-10-31T01:06:09.696Z,23.23
2022-10-31T01:08:38.725Z,27.67
2022-10-31T01:11:20.898Z,25.53
2022-10-31T01:13:52.002Z,27.67
2022-10-31T01:16:23.470Z,30.87
2022-10-31T01:18:51.131Z,42.10
2022-10-31T01:21:25.918Z,40.87
2022-10-31T01:23:56.149Z,34.07
2022-10-31T01:26:32.756Z,21.90
2022-10-31T01:29:06.996Z,31.50
2022-10-31T01:31:39.509Z,19.97
2022-10-31T01:34:07.665Z,30.97
2022-10-31T01:36:40.681Z,39.47
2022-10-31T01:39:16.086Z,36.47
2022-10-31T01:41:48.476Z,40.37
2022-10-31T01:44:15.266Z,30.30
2022-10-31T01:47:05.080Z,33.53
2022-10-31T01:49:44.754Z,31.13
2022-10-31T01:52:31.680Z,37.13
2022-10-31T01:55:10.994Z,34.10
2022-10-31T01:57:41.502Z,17.27
2022-10-31T02:00:12.067Z,16.63
2022-10-31T02:02:39.432Z,15.50
2022-10-31T02:05:13.351Z,13.93
2022-10-31T02:08:09.760Z,31.30
2022-10-31T02:10:38.519Z,33.57
2022-10-31T02:13:08.972Z,26.27
2022-10-31T02:15:39.232Z,28.23
2022-10-31T02:18:07.839Z,33.07
2022-10-31T02:21:04.997Z,35.33
2022-10-31T02:24:43.747Z,28.93
2022-10-31T02:27:50.499Z,31.17
2022-10-31T02:30:25.705Z,42.23
2022-10-31T02:33:15.757Z,33.67
2022-10-31T02:36:02.210Z,23.80
2022-10-31T02:38:57.680Z,20.77
2022-10-31T02:41:56.892Z,19.43
2022-10-31T02:44:56.237Z,18.37
2022-10-31T02:47:30.628Z,17.10
2022-10-31T02:50:23.073Z,25.70
2022-10-31T02:52:54.076Z,20.40
2022-10-31T02:55:23.903Z,25.23
2022-10-31T02:58:15.480Z,17.90
2022-10-31T03:02:01.611Z,24.20
2022-10-31T03:05:27.824Z,22.10
2022-10-31T03:08:36.735Z,21.20
2022-10-31T03:11:08.596Z,17.37
2022-10-31T03:13:57.227Z,20.60
2022-10-31T03:16:53.168Z,25.37
2022-10-31T03:19:41.051Z,25.03
2022-10-31T03:22:16.736Z,31.30
2022-10-31T03:24:45.858Z,33.97
2022-10-31T03:27:17.235Z,30.77
2022-10-31T03:29:45.871Z,30.53
2022-10-31T03:32:24.617Z,39.40
2022-10-31T03:34:54.213Z,41.13
2022-10-31T03:37:22.999Z,39.67
2022-10-31T03:39:51.079Z,36.40
2022-10-31T03:42:29.826Z,38.03
2022-10-31T03:45:18.554Z,44.83
2022-10-31T03:47:45.672Z,42.73
2022-10-31T03:50:16.070Z,59.53
2022-10-31T03:52:58.591Z,58.97
2022-10-31T03:55:35.924Z,67.50
2022-10-31T03:58:38.245Z,58.73
2022-10-31T04:01:12.246Z,23.00
2022-10-31T04:03:40.022Z,42.30
2022-10-31T04:06:15.671Z,50.70
2022-10-31T04:09:02.057Z,36.70
2022-10-31T04:11:37.924Z,56.97
2022-10-31T04:14:07.273Z,63.73
2022-10-31T04:16:34.595Z,62.20
2022-10-31T04:19:01.575Z,56.60
2022-10-31T04:21:30.257Z,63.87
2022-10-31T04:23:58.667Z,63.73
2022-10-31T04:26:25.999Z,67.83
2022-10-31T04:28:53.055Z,49.00
2022-10-31T04:31:20.820Z,63.30
2022-10-31T04:33:47.837Z,61.57
2022-10-31T04:36:14.916Z,74.90
2022-10-31T04:38:41.889Z,60.20
2022-10-31T04:41:08.822Z,57.23
2022-10-31T04:43:35.846Z,54.63
2022-10-31T04:46:03.168Z,75.50
2022-10-31T04:48:30.315Z,98.03
2022-10-31T04:51:02.443Z,70.83
2022-10-31T04:53:30.605Z,63.73
2022-10-31T04:56:02.892Z,79.20
2022-10-31T04:58:30.179Z,53.90
2022-10-31T05:00:58.202Z,60.60
2022-10-31T05:03:25.285Z,71.13
2022-10-31T05:05:52.331Z,80.23
2022-10-31T05:08:19.293Z,85.43
2022-10-31T05:10:46.262Z,76.63
2022-10-31T05:13:13.417Z,82.30
2022-10-31T05:15:40.448Z,78.83
2022-10-31T05:18:07.657Z,64.83
2022-10-31T05:20:34.849Z,118.20
2022-10-31T05:23:01.961Z,71.17
2022-10-31T05:25:30.178Z,80.00
2022-10-31T05:27:58.692Z,77.93
2022-10-31T05:30:30.810Z,49.43
2022-10-31T05:32:58.529Z,64.20
2022-10-31T05:35:33.940Z,63.60
2022-10-31T05:38:01.084Z,62.33
2022-10-31T05:40:29.520Z,61.77
2022-10-31T05:43:00.990Z,49.00
2022-10-31T05:45:28.198Z,39.83
2022-10-31T05:48:01.936Z,62.10
2022-10-31T05:50:32.188Z,53.70
2022-10-31T05:53:06.318Z,56.43
2022-10-31T05:55:34.064Z,55.67
2022-10-31T05:58:01.871Z,49.60
2022-10-31T06:00:32.802Z,58.43
2022-10-31T06:05:36.756Z,64.07
2022-10-31T06:08:04.451Z,55.27
2022-10-31T06:10:31.712Z,41.80
2022-10-31T06:12:58.777Z,52.27
2022-10-31T06:15:25.837Z,54.17
2022-10-31T06:18:19.386Z,43.00
2022-10-31T06:20:46.416Z,50.30
2022-10-31T06:23:13.469Z,37.17
2022-10-31T06:25:40.477Z,43.00
2022-10-31T06:28:07.678Z,47.13
2022-10-31T06:30:34.690Z,26.23
2022-10-31T06:33:10.319Z,59.00
2022-10-31T06:35:37.299Z,33.80
2022-10-31T06:38:04.813Z,46.53
2022-10-31T06:40:32.502Z,32.60
2022-10-31T06:43:02.058Z,43.97
2022-10-31T06:45:29.512Z,51.20
2022-10-31T06:50:45.173Z,42.13
2022-10-31T06:53:12.500Z,51.40
2022-10-31T06:55:39.804Z,48.23
2022-10-31T06:58:07.385Z,45.37
2022-10-31T07:00:34.593Z,41.27
2022-10-31T07:03:11.417Z,49.33
2022-10-31T07:05:39.056Z,48.03
2022-10-31T07:08:10.328Z,50.77
2022-10-31T07:10:41.007Z,52.77
2022-10-31T07:13:15.073Z,49.77
2022-10-31T07:15:45.384Z,45.70
2022-10-31T07:18:13.571Z,38.60
2022-10-31T07:20:40.864Z,44.80
2022-10-31T07:23:12.563Z,41.23
2022-10-31T07:25:40.917Z,41.50
2022-10-31T07:28:08.399Z,27.70
2022-10-31T07:30:35.607Z,42.43
2022-10-31T07:33:02.675Z,37.77
2022-10-31T07:35:30.855Z,33.33
2022-10-31T07:37:59.313Z,36.80
2022-10-31T07:40:26.849Z,44.17
2022-10-31T07:42:54.843Z,35.33
2022-10-31T07:45:22.236Z,34.53
2022-10-31T07:47:56.080Z,31.90
2022-10-31T07:50:29.872Z,39.10
2022-10-31T07:53:16.394Z,31.17
2022-10-31T07:55:44.479Z,36.63
2022-10-31T07:58:15.943Z,40.47
2022-10-31T08:00:46.284Z,40.83
2022-10-31T08:03:17.945Z,34.93
2022-10-31T08:05:48.642Z,40.13
2022-10-31T08:08:16.473Z,36.87
2022-10-31T08:10:44.051Z,39.67
2022-10-31T08:13:14.268Z,32.67
2022-10-31T08:15:43.022Z,30.97
2022-10-31T08:18:15.085Z,35.90
2022-10-31T08:20:44.173Z,34.20
2022-10-31T08:23:13.281Z,37.33
2022-10-31T08:25:41.167Z,38.90
2022-10-31T08:28:13.428Z,38.17
2022-10-31T08:30:41.698Z,32.80
2022-10-31T08:33:18.613Z,41.10
2022-10-31T08:35:45.999Z,39.73
2022-10-31T08:38:15.135Z,31.57
2022-10-31T08:40:42.692Z,37.73
2022-10-31T08:43:16.162Z,33.60
2022-10-31T08:45:45.658Z,38.30
2022-10-31T08:48:16.618Z,37.93
2022-10-31T08:50:46.097Z,37.83
2022-10-31T08:53:20.229Z,39.43
2022-10-31T08:55:48.135Z,37.53
2022-10-31T08:58:19.567Z,35.80
2022-10-31T09:00:50.175Z,42.93
2022-10-31T09:03:27.264Z,32.30
2022-10-31T09:06:04.916Z,37.77
2022-10-31T09:08:33.215Z,30.07
2022-10-31T09:11:00.791Z,38.50
2022-10-31T09:13:28.363Z,33.83
2022-10-31T09:15:58.822Z,37.13
2022-10-31T09:18:28.837Z,34.47
2022-10-31T09:20:59.469Z,33.90
2022-10-31T09:23:26.679Z,33.33
2022-10-31T09:25:54.778Z,40.27
2022-10-31T09:28:24.652Z,37.33
2022-10-31T09:30:54.895Z,38.40
2022-10-31T09:33:22.390Z,35.57
2022-10-31T09:35:49.745Z,41.90
2022-10-31T09:38:21.180Z,37.17
2022-10-31T09:41:56.166Z,30.50
2022-10-31T09:44:51.534Z,36.47
2022-10-31T09:47:44.563Z,38.03
2022-10-31T09:50:38.886Z,35.03
2022-10-31T09:53:27.454Z,31.60
2022-10-31T09:55:56.003Z,36.50
2022-10-31T09:58:32.110Z,40.43
2022-10-31T10:01:04.044Z,44.67
2022-10-31T10:03:47.823Z,34.87
2022-10-31T10:06:25.791Z,38.37
2022-10-31T10:08:52.763Z,38.43
2022-10-31T10:11:59.743Z,35.80
2022-10-31T10:15:31.720Z,35.57
2022-10-31T10:18:28.599Z,39.33
2022-10-31T10:21:16.903Z,39.93
2022-10-31T10:24:45.409Z,33.67
2022-10-31T10:27:32.328Z,35.33
2022-10-31T10:30:26.551Z,37.83
2022-10-31T10:33:09.175Z,42.07
2022-10-31T10:35:48.778Z,38.63
2022-10-31T10:38:51.289Z,35.67
2022-10-31T10:41:40.171Z,32.60
2022-10-31T10:44:18.446Z,36.63
2022-10-31T10:47:18.951Z,36.33
2022-10-31T10:49:56.781Z,36.40
2022-10-31T10:53:02.112Z,36.57
2022-10-31T10:56:18.952Z,36.30
2022-10-31T10:58:46.750Z,32.57
2022-10-31T11:01:24.206Z,38.13
2022-10-31T11:04:12.432Z,36.67
2022-10-31T11:06:40.219Z,41.33
2022-10-31T11:09:14.037Z,37.30
2022-10-31T11:11:41.273Z,37.50
2022-10-31T11:14:17.149Z,37.35
2022-10-31T11:16:56.662Z,37.67
2022-10-31T11:19:28.436Z,36.67
2022-10-31T11:22:18.810Z,40.30
2022-10-31T11:24:49.767Z,39.15
2022-10-31T11:27:25.074Z,35.58
2022-10-31T11:29:56.791Z,34.33
2022-10-31T11:32:30.377Z,34.63
2022-10-31T11:35:13.548Z,36.00
2022-10-31T11:37:46.620Z,40.35
2022-10-31T11:40:27.463Z,40.35
2022-10-31T11:43:00.246Z,36.05
2022-10-31T11:45:51.535Z,38.00
2022-10-31T11:48:25.556Z,42.08
2022-10-31T11:51:02.033Z,41.30
2022-10-31T11:53:33.943Z,35.40
2022-10-31T11:56:29.544Z,40.05
2022-10-31T11:59:18.602Z,31.88
2022-10-31T12:01:58.761Z,36.63
2022-10-31T12:04:41.562Z,33.90
2022-10-31T12:07:19.758Z,37.92
2022-10-31T12:09:46.913Z,43.03
2022-10-31T12:12:30.451Z,40.00
2022-10-31T12:15:36.789Z,37.00
2022-10-31T12:18:52.472Z,36.95
2022-10-31T12:21:52.901Z,34.25
2022-10-31T12:24:56.961Z,37.22
2022-10-31T12:27:35.594Z,41.03
2022-10-31T12:30:28.161Z,38.65
2022-10-31T12:33:22.758Z,34.53
2022-10-31T12:36:42.306Z,34.10
2022-10-31T12:39:29.890Z,39.97
2022-10-31T12:42:56.414Z,38.58
2022-10-31T12:45:41.646Z,40.78
2022-10-31T12:49:23.743Z,36.53
2022-10-31T12:52:29.309Z,46.42
2022-10-31T12:55:32.201Z,31.35
2022-10-31T12:58:41.932Z,37.58
2022-10-31T13:01:38.603Z,28.85
2022-10-31T13:04:41.632Z,40.30
2022-10-31T13:07:39.927Z,33.50
2022-10-31T13:10:43.871Z,36.53
2022-10-31T13:13:39.179Z,35.38
2022-10-31T13:16:52.880Z,34.13
2022-10-31T13:19:38.020Z,33.10
2022-10-31T13:22:38.374Z,34.63
2022-10-31T13:25:50.646Z,29.27
2022-10-31T13:29:21.544Z,32.80
2022-10-31T13:31:55.022Z,35.63
2022-10-31T13:34:48.865Z,30.65
2022-10-31T13:37:45.293Z,28.98
2022-10-31T13:40:58.400Z,35.40
2022-10-31T13:44:19.016Z,30.27
2022-10-31T13:46:46.989Z,33.65
2022-10-31T13:49:35.629Z,31.60
2022-10-31T13:52:30.889Z,40.50
2022-10-31T13:55:24.956Z,32.42
2022-10-31T13:57:54.835Z,32.80
2022-10-31T14:00:22.188Z,36.83
2022-10-31T14:03:01.083Z,34.28
2022-10-31T14:05:36.221Z,33.20
2022-10-31T14:08:23.231Z,37.28
2022-10-31T14:11:20.538Z,35.72
2022-10-31T14:13:48.153Z,33.15
2022-10-31T14:16:33.328Z,44.45
2022-10-31T14:19:08.529Z,35.17
2022-10-31T14:21:43.804Z,36.45
2022-10-31T14:24:26.345Z,39.47
2022-10-31T14:27:27.139Z,39.35
2022-10-31T14:29:54.337Z,42.65
2022-10-31T14:32:27.654Z,36.75
2022-10-31T14:34:58.839Z,36.55
2022-10-31T14:38:13.793Z,33.30
2022-10-31T14:41:03.372Z,38.38
2022-10-31T14:44:27.228Z,43.15
2022-10-31T14:47:45.261Z,39.78
2022-10-31T14:50:36.029Z,36.05
2022-10-31T14:53:08.162Z,41.17
2022-10-31T14:55:42.614Z,39.65
2022-10-31T14:58:09.822Z,44.00
2022-10-31T15:00:37.382Z,46.28
2022-10-31T15:03:22.415Z,44.42
2022-10-31T15:06:02.338Z,48.25
2022-10-31T15:08:48.508Z,54.03
2022-10-31T15:11:37.577Z,53.58
2022-10-31T15:14:30.851Z,55.90
2022-10-31T15:17:04.393Z,53.43
2022-10-31T15:19:35.178Z,50.67
2022-10-31T15:22:02.363Z,61.78
2022-10-31T15:24:38.259Z,59.88
2022-10-31T15:27:14.909Z,59.87
2022-10-31T15:30:00.355Z,65.97
2022-10-31T15:32:30.219Z,61.07
2022-10-31T15:34:58.230Z,62.40
2022-10-31T15:37:27.808Z,66.90
2022-10-31T15:40:00.983Z,65.43
2022-10-31T15:42:41.668Z,68.32
2022-10-31T15:45:13.976Z,67.73
2022-10-31T15:47:54.152Z,73.33
2022-10-31T15:50:50.445Z,68.37
2022-10-31T15:53:34.512Z,78.07
2022-10-31T15:56:08.411Z,68.47
2022-10-31T15:58:48.119Z,72.80
2022-10-31T16:01:33.924Z,74.50
2022-10-31T16:04:14.545Z,75.87
2022-10-31T16:06:41.514Z,76.57
2022-10-31T16:09:24.983Z,86.53
2022-10-31T16:11:52.302Z,85.90
2022-10-31T16:14:26.818Z,87.17
2022-10-31T16:16:58.542Z,83.90
2022-10-31T16:19:37.247Z,100.67
2022-10-31T16:22:10.954Z,82.90
2022-10-31T16:25:12.719Z,97.20
2022-10-31T16:27:41.427Z,95.87
2022-10-31T16:30:47.900Z,92.53
2022-10-31T16:33:35.072Z,100.37
2022-10-31T16:36:34.410Z,105.40
2022-10-31T16:39:03.412Z,96.83
2022-10-31T16:41:30.520Z,69.60
2022-10-31T16:43:57.634Z,129.73
2022-10-31T16:46:27.873Z,226.10
2022-10-31T16:48:55.462Z,185.20
2022-10-31T16:51:22.427Z,454.73
2022-10-31T16:53:53.223Z,114.00
2022-10-31T16:56:30.276Z,560.13
2022-10-31T16:58:57.772Z,318.83
2022-10-31T17:01:24.891Z,115.37
2022-10-31T17:03:52.013Z,287.80
2022-10-31T17:06:18.927Z,153.30
2022-10-31T17:08:45.960Z,105.83
2022-10-31T17:11:22.215Z,278.27
2022-10-31T17:13:49.262Z,145.63
2022-10-31T17:16:16.311Z,415.23
2022-10-31T17:18:47.471Z,254.97
2022-10-31T17:21:23.661Z,267.37
2022-10-31T17:23:51.501Z,243.00
2022-10-31T17:26:19.531Z,101.40
2022-10-31T17:28:46.838Z,197.83
2022-10-31T17:31:36.507Z,167.40
2022-10-31T17:34:05.799Z,650.50
2022-10-31T17:36:34.602Z,185.97
2022-10-31T17:39:03.181Z,179.20
2022-10-31T17:41:50.242Z,152.93
2022-10-31T17:44:17.249Z,141.60
2022-10-31T17:46:55.657Z,194.03
2022-10-31T17:49:22.728Z,288.60
2022-10-31T17:51:49.691Z,257.67
2022-10-31T17:54:18.928Z,352.93
2022-10-31T17:56:46.065Z,134.00
2022-10-31T17:59:13.181Z,237.33
2022-10-31T18:01:43.019Z,176.27
2022-10-31T18:04:10.397Z,197.47
2022-10-31T18:06:37.760Z,197.77
2022-10-31T18:09:06.001Z,134.00
2022-10-31T18:11:33.466Z,170.80
2022-10-31T18:14:01.303Z,245.53
2022-10-31T18:16:28.530Z,192.60
2022-10-31T18:19:05.917Z,221.23
2022-10-31T18:21:33.279Z,210.27
2022-10-31T18:24:02.874Z,224.40
2022-10-31T18:26:30.046Z,160.83
2022-10-31T18:28:57.011Z,121.40
2022-10-31T18:31:24.764Z,381.47
2022-10-31T18:33:56.748Z,191.17
2022-10-31T18:36:25.038Z,190.97
2022-10-31T18:38:52.375Z,140.87
2022-10-31T18:41:19.765Z,150.80
2022-10-31T18:43:47.090Z,283.27
2022-10-31T18:46:18.040Z,143.83
2022-10-31T18:48:48.623Z,264.40
2022-10-31T18:51:18.293Z,176.90
2022-10-31T18:54:01.093Z,113.17
2022-10-31T18:56:31.739Z,126.63
2022-10-31T18:59:02.503Z,328.23
2022-10-31T19:01:30.781Z,113.53
2022-10-31T19:03:59.739Z,106.73
2022-10-31T19:06:28.339Z,254.13
2022-10-31T19:09:06.716Z,126.03
2022-10-31T19:11:34.670Z,94.47
2022-10-31T19:14:02.392Z,107.13
2022-10-31T19:16:32.382Z,139.83
2022-10-31T19:19:00.245Z,110.20
2022-10-31T19:21:27.670Z,235.17
2022-10-31T19:23:56.511Z,225.00
2022-10-31T19:26:27.606Z,262.83
2022-10-31T19:28:56.733Z,125.10
2022-10-31T19:31:24.814Z,121.90
2022-10-31T19:33:52.274Z,169.17
2022-10-31T19:36:24.068Z,128.27
2022-10-31T19:38:53.081Z,113.63
2022-10-31T19:41:30.382Z,110.07
2022-10-31T19:44:00.963Z,204.27
2022-10-31T19:46:48.129Z,290.43
2022-10-31T19:49:15.211Z,89.00
2022-10-31T19:51:42.582Z,229.83
2022-10-31T19:54:11.376Z,128.00
2022-10-31T19:56:38.521Z,249.97
2022-10-31T19:59:05.803Z,194.50
2022-10-31T20:01:32.934Z,88.00
2022-10-31T20:04:00.382Z,121.93
2022-10-31T20:06:36.350Z,421.80
2022-10-31T20:09:08.355Z,201.43
2022-10-31T20:11:42.481Z,145.73
2022-10-31T20:14:21.000Z,216.87
2022-10-31T20:16:50.969Z,105.03
2022-10-31T20:19:18.208Z,155.30
2022-10-31T20:21:48.564Z,92.37
2022-10-31T20:24:15.745Z,74.87
2022-10-31T20:26:42.964Z,98.60
2022-10-31T20:29:18.227Z,93.37
2022-10-31T20:31:47.249Z,144.47
2022-10-31T20:34:15.217Z,53.43
2022-10-31T20:36:46.078Z,108.83
2022-10-31T20:39:16.352Z,107.60
2022-10-31T20:41:56.320Z,78.07
2022-10-31T20:44:23.653Z,56.97
2022-10-31T20:46:51.021Z,58.60
2022-10-31T20:49:17.975Z,71.67
2022-10-31T20:51:53.257Z,78.47
2022-10-31T20:54:20.697Z,100.13
2022-10-31T20:56:48.088Z,58.07
2022-10-31T20:59:20.052Z,69.57
2022-10-31T21:01:49.984Z,94.33
2022-10-31T21:04:19.823Z,69.30
2022-10-31T21:06:49.655Z,60.67
2022-10-31T21:09:17.962Z,131.93
2022-10-31T21:11:45.062Z,75.70
2022-10-31T21:14:12.141Z,134.93
2022-10-31T21:16:41.935Z,135.07
2022-10-31T21:19:08.976Z,104.77
2022-10-31T21:21:40.480Z,90.57
2022-10-31T21:26:51.986Z,101.87
2022-10-31T21:29:26.876Z,119.60
2022-10-31T21:31:54.015Z,245.17
2022-10-31T21:34:37.914Z,95.60
2022-10-31T21:37:06.104Z,86.10
2022-10-31T21:39:38.372Z,70.73
2022-10-31T21:42:08.930Z,66.10
2022-10-31T21:44:44.673Z,62.63
2022-10-31T21:47:11.846Z,104.07
2022-10-31T21:49:41.685Z,85.07
2022-10-31T21:52:09.379Z,84.03
2022-10-31T21:54:37.462Z,70.10
2022-10-31T21:57:04.582Z,62.17
2022-10-31T21:59:31.906Z,79.07
2022-10-31T22:02:00.760Z,77.83
2022-10-31T22:04:32.451Z,67.87
2022-10-31T22:07:04.287Z,99.23
2022-10-31T22:09:34.329Z,73.17
2022-10-31T22:12:06.719Z,96.57
2022-10-31T22:14:37.022Z,84.03
2022-10-31T22:17:06.975Z,106.40
2022-10-31T22:19:34.797Z,100.57
2022-10-31T22:22:04.862Z,80.13
2022-10-31T22:24:32.295Z,132.20
2022-10-31T22:26:59.870Z,81.23
2022-10-31T22:29:30.820Z,132.40
2022-10-31T22:32:02.205Z,99.40
2022-10-31T22:34:29.380Z,79.97
2022-10-31T22:37:05.500Z,112.30
2022-10-31T22:39:32.698Z,108.20
2022-10-31T22:42:02.674Z,128.73
2022-10-31T22:44:29.729Z,73.63
2022-10-31T22:46:57.022Z,109.60
2022-10-31T22:49:24.162Z,61.40
2022-10-31T22:52:02.619Z,77.70
2022-10-31T22:54:35.262Z,83.83
2022-10-31T22:57:10.975Z,78.67
2022-10-31T22:59:38.013Z,71.70
2022-10-31T23:02:08.443Z,84.47
2022-10-31T23:04:40.253Z,69.87
2022-10-31T23:07:23.018Z,62.63
2022-10-31T23:10:02.152Z,80.73
2022-10-31T23:12:59.627Z,137.43
2022-10-31T23:15:32.386Z,210.20
2022-10-31T23:17:59.838Z,163.67
2022-10-31T23:20:27.493Z,215.97
2022-10-31T23:22:57.862Z,106.90
2022-10-31T23:25:43.802Z,209.23
2022-10-31T23:28:11.211Z,95.07
2022-10-31T23:30:46.784Z,61.77
2022-10-31T23:33:17.053Z,101.37
2022-10-31T23:35:47.356Z,69.67
2022-10-31T23:38:14.790Z,115.73
2022-10-31T23:40:49.493Z,81.80
2022-10-31T23:43:26.237Z,99.53
2022-10-31T23:45:55.599Z,64.43
2022-10-31T23:48:24.998Z,74.23
2022-10-31T23:50:59.460Z,68.00
2022-10-31T23:53:32.902Z,70.60
2022-10-31T23:56:00.133Z,127.43
2022-10-31T23:58:51.200Z,55.87
